createdAt,value
2022-08-03T00:00:24.209Z,20.52
2022-08-03T00:02:50.800Z,20.44
2022-08-03T00:05:17.332Z,20.24
2022-08-03T00:07:43.814Z,20.22
2022-08-03T00:10:12.531Z,20.16
2022-08-03T00:12:38.974Z,20.31
2022-08-03T00:15:10.429Z,20.08
2022-08-03T00:17:51.972Z,20.22
2022-08-03T00:20:19.674Z,20.00
2022-08-03T00:22:46.100Z,20.08
2022-08-03T00:25:12.542Z,20.26
2022-08-03T00:27:38.925Z,20.34
2022-08-03T00:30:06.104Z,20.33
2022-08-03T00:32:32.647Z,20.10
2022-08-03T00:34:59.728Z,20.02
2022-08-03T00:37:40.873Z,19.87
2022-08-03T00:40:12.877Z,20.04
2022-08-03T00:42:56.431Z,20.06
2022-08-03T00:45:29.043Z,19.71
2022-08-03T00:47:56.089Z,19.80
2022-08-03T00:50:24.239Z,19.85
2022-08-03T00:52:53.311Z,19.70
2022-08-03T00:55:20.186Z,19.91
2022-08-03T00:57:47.355Z,19.70
2022-08-03T01:00:17.605Z,19.73
2022-08-03T01:02:44.244Z,19.76
2022-08-03T01:05:11.175Z,19.71
2022-08-03T01:07:56.226Z,19.55
2022-08-03T01:10:39.774Z,19.53
2022-08-03T01:14:01.175Z,19.35
2022-08-03T01:16:36.810Z,19.26
2022-08-03T01:19:25.319Z,19.22
2022-08-03T01:22:26.530Z,19.43
2022-08-03T01:25:14.847Z,19.31
2022-08-03T01:28:00.048Z,19.09
2022-08-03T01:30:35.271Z,19.18
2022-08-03T01:33:06.195Z,19.04
2022-08-03T01:35:48.476Z,18.97
2022-08-03T01:38:39.354Z,19.14
2022-08-03T01:41:30.946Z,18.98
2022-08-03T01:44:29.044Z,18.92
2022-08-03T01:46:49.891Z,18.90
2022-08-03T01:49:17.666Z,18.78
2022-08-03T01:52:03.135Z,18.89
2022-08-03T01:54:34.773Z,18.68
2022-08-03T01:57:02.790Z,18.74
2022-08-03T01:59:32.435Z,18.56
2022-08-03T02:02:25.248Z,18.51
2022-08-03T02:04:48.119Z,18.53
2022-08-03T02:07:16.237Z,18.48
2022-08-03T02:09:46.852Z,18.44
2022-08-03T02:12:15.199Z,18.38
2022-08-03T02:14:44.243Z,18.70
2022-08-03T02:17:12.507Z,18.77
2022-08-03T02:19:40.604Z,18.88
2022-08-03T02:22:10.727Z,18.61
2022-08-03T02:24:37.919Z,18.66
2022-08-03T02:27:10.617Z,18.77
2022-08-03T02:29:40.985Z,18.81
2022-08-03T02:32:12.409Z,18.98
2022-08-03T02:34:40.799Z,18.92
2022-08-03T02:37:10.277Z,18.82
2022-08-03T02:39:39.751Z,18.69
2022-08-03T02:42:09.292Z,18.56
2022-08-03T02:44:37.500Z,18.46
2022-08-03T02:47:09.501Z,18.59
2022-08-03T02:49:51.025Z,18.74
2022-08-03T02:52:21.423Z,18.49
2022-08-03T02:54:50.977Z,18.63
2022-08-03T02:57:19.373Z,18.45
2022-08-03T02:59:47.165Z,18.35
2022-08-03T03:02:15.801Z,18.30
2022-08-03T03:05:52.106Z,18.24
2022-08-03T03:07:33.987Z,18.39
2022-08-03T03:10:17.838Z,18.25
2022-08-03T03:12:46.683Z,18.13
2022-08-03T03:15:13.241Z,18.27
2022-08-03T03:17:40.978Z,18.09
2022-08-03T03:20:08.817Z,18.07
2022-08-03T03:22:36.100Z,18.11
2022-08-03T03:25:02.765Z,18.04
2022-08-03T03:27:30.320Z,18.16
2022-08-03T03:29:57.908Z,18.04
2022-08-03T03:32:26.258Z,18.00
2022-08-03T03:34:54.016Z,17.86
2022-08-03T03:37:20.478Z,18.03
2022-08-03T03:39:47.010Z,17.85
2022-08-03T03:42:14.022Z,17.80
2022-08-03T03:44:40.575Z,17.75
2022-08-03T03:47:07.286Z,17.83
2022-08-03T03:49:34.201Z,17.70
2022-08-03T03:52:00.793Z,17.72
2022-08-03T03:54:29.383Z,17.55
2022-08-03T03:56:56.018Z,17.54
2022-08-03T03:59:22.532Z,17.70
2022-08-03T04:01:49.049Z,17.73
2022-08-03T04:04:44.371Z,17.57
2022-08-03T04:07:29.235Z,17.68
2022-08-03T04:10:15.113Z,17.55
2022-08-03T04:12:50.191Z,17.53
2022-08-03T04:15:21.451Z,17.62
2022-08-03T04:17:50.671Z,17.69
2022-08-03T04:20:19.864Z,17.78
2022-08-03T04:22:49.735Z,17.68
2022-08-03T04:25:19.336Z,17.75
2022-08-03T04:28:08.148Z,17.69
2022-08-03T04:30:38.812Z,17.75
2022-08-03T04:33:06.909Z,17.81
2022-08-03T04:35:58.475Z,18.80
2022-08-03T04:38:25.361Z,17.86
2022-08-03T04:40:52.921Z,17.85
2022-08-03T04:43:22.495Z,17.54
2022-08-03T04:45:51.124Z,17.68
2022-08-03T04:48:17.803Z,17.84
2022-08-03T04:50:44.599Z,18.04
2022-08-03T04:53:11.063Z,18.11
2022-08-03T04:55:37.525Z,18.83
2022-08-03T04:58:04.618Z,19.83
2022-08-03T05:00:31.042Z,20.76
2022-08-03T05:02:57.504Z,21.31
2022-08-03T05:05:24.426Z,22.03
2022-08-03T05:07:50.975Z,22.48
2022-08-03T05:10:18.081Z,22.54
2022-08-03T05:12:47.536Z,22.82
2022-08-03T05:15:14.375Z,22.84
2022-08-03T05:17:40.894Z,23.13
2022-08-03T05:20:08.091Z,23.61
2022-08-03T05:22:34.545Z,23.75
2022-08-03T05:25:02.248Z,23.42
2022-08-03T05:27:28.702Z,23.42
2022-08-03T05:29:55.165Z,23.61
2022-08-03T05:32:21.790Z,23.71
2022-08-03T05:34:48.728Z,23.51
2022-08-03T05:37:15.118Z,24.05
2022-08-03T05:39:41.527Z,24.18
2022-08-03T05:42:07.935Z,24.49
2022-08-03T05:44:34.506Z,24.14
2022-08-03T05:47:00.989Z,24.84
2022-08-03T05:49:27.559Z,24.86
2022-08-03T05:52:00.159Z,25.12
2022-08-03T05:54:55.555Z,24.89
2022-08-03T05:57:24.715Z,24.67
2022-08-03T05:59:54.563Z,24.55
2022-08-03T06:02:25.400Z,24.65
2022-08-03T06:04:51.802Z,25.20
2022-08-03T06:07:18.568Z,25.05
2022-08-03T06:10:33.783Z,25.21
2022-08-03T06:12:34.447Z,25.60
2022-08-03T06:15:00.848Z,25.35
2022-08-03T06:17:27.243Z,25.39
2022-08-03T06:20:04.641Z,25.71
2022-08-03T06:22:31.073Z,25.62
2022-08-03T06:24:58.597Z,25.63
2022-08-03T06:27:37.067Z,25.68
2022-08-03T06:30:05.000Z,25.65
2022-08-03T06:32:31.484Z,25.51
2022-08-03T06:34:57.873Z,25.59
2022-08-03T06:37:24.606Z,25.00
2022-08-03T06:39:51.030Z,25.45
2022-08-03T06:42:17.842Z,25.30
2022-08-03T06:44:47.020Z,25.01
2022-08-03T06:47:13.518Z,25.21
2022-08-03T06:49:41.039Z,25.72
2022-08-03T06:52:07.467Z,25.36
2022-08-03T06:54:34.159Z,25.29
2022-08-03T06:57:00.898Z,25.18
2022-08-03T07:00:09.958Z,25.82
2022-08-03T07:02:19.011Z,26.30
2022-08-03T07:04:47.460Z,25.76
2022-08-03T07:07:14.068Z,25.86
2022-08-03T07:09:40.504Z,25.77
2022-08-03T07:12:08.524Z,25.56
2022-08-03T07:14:35.044Z,25.82
2022-08-03T07:17:01.590Z,25.90
2022-08-03T07:19:31.127Z,25.82
2022-08-03T07:21:58.291Z,26.11
2022-08-03T07:24:29.141Z,26.17
2022-08-03T07:26:55.722Z,26.07
2022-08-03T07:29:22.107Z,26.60
2022-08-03T07:31:48.603Z,26.22
2022-08-03T07:34:15.157Z,26.51
2022-08-03T07:36:41.541Z,26.64
2022-08-03T07:39:16.587Z,27.30
2022-08-03T07:41:45.680Z,26.99
2022-08-03T07:44:12.209Z,27.10
2022-08-03T07:46:38.665Z,27.55
2022-08-03T07:49:05.381Z,27.26
2022-08-03T07:51:31.853Z,27.29
2022-08-03T07:53:58.957Z,27.34
2022-08-03T07:56:25.379Z,28.18
2022-08-03T07:58:52.981Z,27.89
2022-08-03T08:01:19.567Z,28.08
2022-08-03T08:03:53.396Z,28.01
2022-08-03T08:06:20.987Z,27.97
2022-08-03T08:08:48.157Z,28.37
2022-08-03T08:11:14.812Z,28.87
2022-08-03T08:13:41.236Z,28.62
2022-08-03T08:16:07.721Z,28.27
2022-08-03T08:18:34.482Z,28.36
2022-08-03T08:21:03.194Z,28.53
2022-08-03T08:23:38.051Z,28.99
2022-08-03T08:26:10.430Z,29.61
2022-08-03T08:28:36.874Z,29.12
2022-08-03T08:31:03.305Z,29.53
2022-08-03T08:36:16.233Z,29.15
2022-08-03T08:38:44.534Z,29.23
2022-08-03T08:41:12.718Z,29.22
2022-08-03T08:43:39.185Z,29.72
2022-08-03T08:46:08.325Z,29.17
2022-08-03T08:48:36.402Z,29.53
2022-08-03T08:51:03.249Z,29.88
2022-08-03T08:53:30.168Z,30.59
2022-08-03T08:56:02.118Z,30.60
2022-08-03T08:58:30.550Z,31.14
2022-08-03T09:00:57.201Z,30.56
2022-08-03T09:03:29.553Z,30.57
2022-08-03T09:05:59.332Z,30.54
2022-08-03T09:08:25.806Z,30.42
2022-08-03T09:10:52.445Z,30.64
2022-08-03T09:13:19.279Z,31.16
2022-08-03T09:15:53.323Z,31.41
2022-08-03T09:18:33.184Z,31.77
2022-08-03T09:21:36.920Z,31.86
2022-08-03T09:24:07.094Z,31.72
2022-08-03T09:26:37.054Z,32.13
2022-08-03T09:29:13.857Z,32.05
2022-08-03T09:31:44.328Z,32.58
2022-08-03T09:34:13.715Z,32.29
2022-08-03T09:36:46.195Z,32.45
2022-08-03T09:39:18.002Z,32.03
2022-08-03T09:41:46.918Z,32.44
2022-08-03T09:44:24.453Z,32.59
2022-08-03T09:46:56.512Z,32.22
2022-08-03T09:49:24.255Z,32.29
2022-08-03T09:52:31.426Z,32.66
2022-08-03T09:54:38.077Z,32.58
2022-08-03T09:57:04.653Z,32.60
2022-08-03T09:59:33.560Z,32.77
2022-08-03T10:02:00.616Z,32.76
2022-08-03T10:04:27.278Z,32.63
2022-08-03T10:07:04.429Z,32.82
2022-08-03T10:09:31.085Z,32.51
2022-08-03T10:11:58.504Z,32.71
2022-08-03T10:14:30.246Z,32.78
2022-08-03T10:16:56.712Z,32.19
2022-08-03T10:19:23.256Z,32.49
2022-08-03T10:21:53.629Z,32.59
2022-08-03T10:24:25.212Z,33.09
2022-08-03T10:26:53.445Z,33.53
2022-08-03T10:29:28.094Z,33.68
2022-08-03T10:31:58.907Z,32.83
2022-08-03T10:34:35.151Z,32.70
2022-08-03T10:37:07.938Z,33.07
2022-08-03T10:39:36.072Z,32.91
2022-08-03T10:42:03.983Z,32.75
2022-08-03T10:44:39.110Z,32.97
2022-08-03T10:47:06.214Z,33.17
2022-08-03T10:49:34.301Z,33.61
2022-08-03T10:52:13.365Z,33.29
2022-08-03T10:55:10.666Z,33.29
2022-08-03T10:57:58.358Z,32.80
2022-08-03T11:00:27.416Z,33.01
2022-08-03T11:03:08.599Z,33.13
2022-08-03T11:05:37.744Z,32.99
2022-08-03T11:08:26.071Z,33.52
2022-08-03T11:10:55.229Z,33.67
2022-08-03T11:13:24.738Z,33.94
2022-08-03T11:16:00.160Z,33.81
2022-08-03T11:18:29.950Z,34.18
2022-08-03T11:20:59.178Z,34.24
2022-08-03T11:24:02.759Z,34.16
2022-08-03T11:26:33.346Z,34.06
2022-08-03T11:29:30.856Z,34.03
2022-08-03T11:31:57.507Z,34.27
2022-08-03T11:34:24.621Z,34.25
2022-08-03T11:37:21.849Z,34.54
2022-08-03T11:39:50.802Z,34.49
2022-08-03T11:42:26.986Z,34.13
2022-08-03T11:44:55.257Z,33.68
2022-08-03T11:47:23.165Z,33.66
2022-08-03T11:49:51.490Z,33.83
2022-08-03T11:52:19.461Z,33.86
2022-08-03T11:54:57.028Z,34.39
2022-08-03T11:59:10.935Z,34.19
2022-08-03T12:00:29.561Z,34.07
2022-08-03T12:03:00.977Z,34.23
2022-08-03T12:05:51.272Z,34.08
2022-08-03T12:08:31.165Z,33.99
2022-08-03T12:11:00.142Z,33.58
2022-08-03T12:14:45.594Z,34.29
2022-08-03T12:16:25.852Z,34.05
2022-08-03T12:19:04.922Z,34.25
2022-08-03T12:21:31.433Z,34.22
2022-08-03T12:24:00.287Z,34.09
2022-08-03T12:26:28.704Z,34.89
2022-08-03T12:28:55.261Z,34.57
2022-08-03T12:31:21.712Z,34.47
2022-08-03T12:34:02.823Z,34.79
2022-08-03T12:36:31.691Z,34.29
2022-08-03T12:39:01.482Z,34.55
2022-08-03T12:41:36.753Z,34.60
2022-08-03T12:44:08.127Z,34.33
2022-08-03T12:46:42.743Z,34.92
2022-08-03T12:49:15.417Z,34.54
2022-08-03T12:51:41.968Z,34.15
2022-08-03T12:54:09.989Z,33.92
2022-08-03T12:56:58.852Z,34.19
2022-08-03T12:59:32.448Z,34.19
2022-08-03T13:02:04.516Z,34.33
2022-08-03T13:04:36.564Z,34.27
2022-08-03T13:07:12.675Z,34.30
2022-08-03T13:09:46.181Z,34.70
2022-08-03T13:12:20.936Z,34.67
2022-08-03T13:14:50.898Z,34.86
2022-08-03T13:17:18.131Z,35.11
2022-08-03T13:19:45.958Z,35.25
2022-08-03T13:22:22.435Z,35.51
2022-08-03T13:24:51.068Z,35.20
2022-08-03T13:27:22.108Z,35.20
2022-08-03T13:30:05.613Z,35.46
2022-08-03T13:32:33.112Z,35.17
2022-08-03T13:34:59.970Z,35.61
2022-08-03T13:37:26.902Z,35.38
2022-08-03T13:39:59.147Z,35.27
2022-08-03T13:42:28.374Z,34.90
2022-08-03T13:44:54.772Z,34.94
2022-08-03T13:47:21.580Z,34.97
2022-08-03T13:49:59.779Z,34.72
2022-08-03T13:52:27.509Z,34.64
2022-08-03T13:54:53.985Z,34.75
2022-08-03T13:58:03.860Z,34.65
2022-08-03T14:00:07.826Z,34.71
2022-08-03T14:02:34.321Z,35.12
2022-08-03T14:05:00.861Z,35.39
2022-08-03T14:07:27.275Z,35.74
2022-08-03T14:09:53.677Z,35.86
2022-08-03T14:12:20.138Z,35.73
2022-08-03T14:14:46.583Z,35.75
2022-08-03T14:17:13.016Z,35.57
2022-08-03T14:19:52.636Z,35.70
2022-08-03T14:22:20.250Z,35.68
2022-08-03T14:24:46.762Z,35.37
2022-08-03T14:27:13.199Z,35.75
2022-08-03T14:29:39.631Z,35.67
2022-08-03T14:32:09.983Z,35.58
2022-08-03T14:34:38.815Z,35.62
2022-08-03T14:37:05.250Z,35.53
2022-08-03T14:39:58.198Z,35.60
2022-08-03T14:42:18.105Z,35.32
2022-08-03T14:44:44.582Z,35.14
2022-08-03T14:47:11.047Z,35.37
2022-08-03T14:50:36.015Z,35.51
2022-08-03T14:52:24.889Z,35.44
2022-08-03T14:54:51.337Z,35.13
2022-08-03T14:57:17.899Z,34.95
2022-08-03T14:59:56.401Z,35.01
2022-08-03T15:02:24.333Z,34.72
2022-08-03T15:04:51.473Z,35.08
2022-08-03T15:07:18.292Z,35.27
2022-08-03T15:09:44.965Z,35.07
2022-08-03T15:12:11.637Z,35.06
2022-08-03T15:14:38.935Z,35.36
2022-08-03T15:17:06.239Z,35.69
2022-08-03T15:20:02.796Z,35.38
2022-08-03T15:22:20.530Z,35.28
2022-08-03T15:24:47.332Z,35.10
2022-08-03T15:27:13.750Z,35.24
2022-08-03T15:30:07.793Z,34.81
2022-08-03T15:32:27.124Z,34.98
2022-08-03T15:34:55.225Z,35.38
2022-08-03T15:37:21.817Z,35.22
2022-08-03T15:39:59.240Z,35.46
2022-08-03T15:42:27.994Z,35.18
2022-08-03T15:44:54.838Z,35.43
2022-08-03T15:47:21.625Z,35.60
2022-08-03T15:49:48.306Z,35.43
2022-08-03T15:52:14.709Z,35.40
2022-08-03T15:54:41.189Z,35.42
2022-08-03T15:57:07.698Z,35.17
2022-08-03T15:59:34.114Z,34.95
2022-08-03T16:02:00.672Z,34.87
2022-08-03T16:04:27.173Z,35.01
2022-08-03T16:06:53.669Z,35.24
2022-08-03T16:09:24.326Z,35.25
2022-08-03T16:12:06.583Z,34.88
2022-08-03T16:14:51.917Z,34.85
2022-08-03T16:17:19.481Z,34.94
2022-08-03T16:19:46.214Z,35.14
2022-08-03T16:22:13.407Z,34.76
2022-08-03T16:24:41.195Z,34.95
2022-08-03T16:27:07.899Z,34.80
2022-08-03T16:29:44.852Z,34.74
2022-08-03T16:32:11.454Z,34.95
2022-08-03T16:34:39.259Z,34.96
2022-08-03T16:37:28.468Z,34.66
2022-08-03T16:39:53.638Z,34.71
2022-08-03T16:42:20.127Z,34.82
2022-08-03T16:44:47.165Z,35.10
2022-08-03T16:47:22.201Z,34.93
2022-08-03T16:49:54.323Z,34.82
2022-08-03T16:52:23.087Z,34.83
2022-08-03T16:54:52.792Z,34.70
2022-08-03T16:57:56.351Z,34.69
2022-08-03T17:00:11.725Z,34.40
2022-08-03T17:02:48.115Z,34.53
2022-08-03T17:05:14.885Z,34.75
2022-08-03T17:07:41.475Z,34.79
2022-08-03T17:10:14.336Z,34.60
2022-08-03T17:12:48.831Z,34.74
2022-08-03T17:15:15.393Z,34.62
2022-08-03T17:17:55.852Z,34.59
2022-08-03T17:20:29.696Z,34.55
2022-08-03T17:23:03.227Z,34.50
2022-08-03T17:25:51.361Z,34.54
2022-08-03T17:28:50.296Z,34.52
2022-08-03T17:31:23.316Z,34.40
2022-08-03T17:34:00.522Z,34.43
2022-08-03T17:36:41.928Z,34.33
2022-08-03T17:39:23.524Z,34.35
2022-08-03T17:42:00.724Z,34.21
2022-08-03T17:44:31.159Z,34.25
2022-08-03T17:47:10.710Z,34.26
2022-08-03T17:49:40.167Z,34.24
2022-08-03T17:52:35.032Z,34.13
2022-08-03T17:55:55.586Z,34.00
2022-08-03T17:58:12.223Z,34.01
2022-08-03T18:01:02.450Z,33.96
2022-08-03T18:03:57.859Z,33.92
2022-08-03T18:06:31.085Z,33.74
2022-08-03T18:09:00.100Z,33.69
2022-08-03T18:11:37.148Z,33.64
2022-08-03T18:14:16.594Z,33.68
2022-08-03T18:16:56.067Z,33.43
2022-08-03T18:20:03.285Z,33.39
2022-08-03T18:22:13.204Z,33.33
2022-08-03T18:24:41.696Z,33.28
2022-08-03T18:27:10.617Z,33.02
2022-08-03T18:29:38.057Z,32.92
2022-08-03T18:32:13.315Z,32.79
2022-08-03T18:34:53.480Z,32.74
2022-08-03T18:37:25.255Z,32.78
2022-08-03T18:39:57.986Z,32.63
2022-08-03T18:42:25.994Z,32.38
2022-08-03T18:44:56.275Z,32.32
2022-08-03T18:47:50.997Z,31.98
2022-08-03T18:50:35.390Z,31.57
2022-08-03T18:53:16.346Z,31.43
2022-08-03T18:56:05.921Z,31.05
2022-08-03T18:58:54.351Z,30.91
2022-08-03T19:02:00.496Z,30.62
2022-08-03T19:04:24.646Z,30.62
2022-08-03T19:06:58.688Z,30.45
2022-08-03T19:09:33.049Z,30.65
2022-08-03T19:12:26.015Z,30.36
2022-08-03T19:14:56.368Z,30.40
2022-08-03T19:17:29.360Z,30.33
2022-08-03T19:19:57.777Z,30.16
2022-08-03T19:22:27.188Z,30.42
2022-08-03T19:24:55.380Z,30.21
2022-08-03T19:27:26.840Z,30.26
2022-08-03T19:29:59.174Z,29.91
2022-08-03T19:32:31.721Z,30.06
2022-08-03T19:35:00.246Z,29.94
2022-08-03T19:37:38.355Z,29.76
2022-08-03T19:40:12.258Z,29.67
2022-08-03T19:42:44.493Z,29.60
2022-08-03T19:45:15.463Z,29.60
2022-08-03T19:47:52.404Z,29.53
2022-08-03T19:50:20.281Z,29.55
2022-08-03T19:52:47.982Z,29.51
2022-08-03T19:55:15.793Z,29.51
2022-08-03T19:57:46.369Z,29.41
2022-08-03T20:00:19.475Z,29.44
2022-08-03T20:02:46.258Z,29.37
2022-08-03T20:05:15.203Z,29.28
2022-08-03T20:07:47.982Z,28.82
2022-08-03T20:10:16.169Z,28.87
2022-08-03T20:12:45.016Z,28.97
2022-08-03T20:15:12.210Z,28.94
2022-08-03T20:17:57.049Z,28.90
2022-08-03T20:20:28.693Z,29.00
2022-08-03T20:22:58.002Z,28.81
2022-08-03T20:25:38.366Z,28.78
2022-08-03T20:28:23.142Z,28.67
2022-08-03T20:30:53.333Z,28.67
2022-08-03T20:33:19.880Z,28.58
2022-08-03T20:35:54.501Z,28.33
2022-08-03T20:38:27.301Z,28.29
2022-08-03T20:40:54.266Z,28.39
2022-08-03T20:43:20.762Z,28.17
2022-08-03T20:46:00.390Z,28.01
2022-08-03T20:48:36.534Z,27.92
2022-08-03T20:51:19.391Z,27.77
2022-08-03T20:54:00.376Z,27.65
2022-08-03T20:56:31.875Z,27.55
2022-08-03T20:59:05.883Z,27.39
2022-08-03T21:01:36.310Z,27.25
2022-08-03T21:07:16.701Z,26.94
2022-08-03T21:09:57.144Z,27.06
2022-08-03T21:12:34.247Z,26.69
2022-08-03T21:15:06.039Z,26.32
2022-08-03T21:17:41.875Z,26.52
2022-08-03T21:20:10.731Z,26.46
2022-08-03T21:22:39.381Z,26.42
2022-08-03T21:25:09.151Z,26.40
2022-08-03T21:27:36.694Z,26.27
2022-08-03T21:30:07.831Z,26.18
2022-08-03T21:32:34.921Z,26.15
2022-08-03T21:35:02.039Z,26.04
2022-08-03T21:37:29.229Z,25.81
2022-08-03T21:39:56.181Z,25.86
2022-08-03T21:42:23.806Z,25.90
2022-08-03T21:44:52.325Z,25.73
2022-08-03T21:47:21.537Z,25.49
2022-08-03T21:50:07.972Z,25.52
2022-08-03T21:52:41.626Z,25.44
2022-08-03T21:55:08.742Z,25.35
2022-08-03T21:57:51.215Z,25.24
2022-08-03T22:00:19.814Z,25.15
2022-08-03T22:02:53.076Z,25.13
2022-08-03T22:05:42.402Z,24.95
2022-08-03T22:08:09.863Z,24.95
2022-08-03T22:10:37.047Z,24.88
2022-08-03T22:13:03.644Z,24.86
2022-08-03T22:15:30.620Z,24.66
2022-08-03T22:17:59.041Z,24.73
2022-08-03T22:20:25.918Z,24.65
2022-08-03T22:22:55.715Z,24.62
2022-08-03T22:25:28.535Z,24.61
2022-08-03T22:27:55.339Z,24.40
2022-08-03T22:30:21.781Z,24.41
2022-08-03T22:32:51.903Z,24.47
2022-08-03T22:35:20.876Z,24.36
2022-08-03T22:37:49.448Z,24.31
2022-08-03T22:40:16.912Z,24.15
2022-08-03T22:42:45.836Z,24.30
2022-08-03T22:46:07.855Z,24.40
2022-08-03T22:47:59.830Z,24.39
2022-08-03T22:50:31.235Z,24.34
2022-08-03T22:53:00.176Z,24.04
2022-08-03T22:55:27.029Z,24.13
2022-08-03T22:57:56.087Z,24.19
2022-08-03T23:00:23.736Z,23.99
2022-08-03T23:02:51.868Z,23.86
2022-08-03T23:06:00.239Z,23.88
2022-08-03T23:08:14.340Z,23.86
2022-08-03T23:10:46.312Z,23.81
2022-08-03T23:13:16.286Z,23.81
2022-08-03T23:15:55.881Z,23.62
2022-08-03T23:18:24.091Z,23.67
2022-08-03T23:20:56.946Z,23.59
2022-08-03T23:23:24.377Z,23.59
2022-08-03T23:25:51.669Z,23.64
2022-08-03T23:28:18.348Z,23.47
2022-08-03T23:30:45.314Z,23.34
2022-08-03T23:33:15.014Z,23.36
2022-08-03T23:36:29.845Z,23.40
2022-08-03T23:38:44.941Z,23.47
2022-08-03T23:41:13.399Z,23.40
2022-08-03T23:43:50.777Z,23.09
2022-08-03T23:46:21.803Z,23.14
2022-08-03T23:48:48.419Z,23.12
2022-08-03T23:51:29.224Z,23.07
2022-08-03T23:54:17.384Z,22.90
2022-08-03T23:57:01.995Z,22.79
2022-08-03T23:59:43.983Z,22.99
